Time;durP1;ratioP1;P1;durP2;ratioP2;P2;SDS_P1;SDS_P2;PMS_P1;PMS_P2;Temp;Humidity;BMP_temperature;BMP_pressure;BME280_temperature;BME280_humidity;BME280_pressure;Samples;Min_cycle;Max_cycle;Signal;HPM_P1;HPM_P2
2022/12/25 00:01:30;;;;;;;68.35;43.02;;;;;;;3.30;100.00;99540.61;1724177;82;20983;-74
2022/12/25 00:03:56;;;;;;;70.03;44.00;;;;;;;3.26;100.00;99550.19;1729583;82;21582;-73
2022/12/25 00:06:23;;;;;;;67.87;43.92;;;;;;;3.26;100.00;99551.52;1726980;82;21522;-74
2022/12/25 00:08:49;;;;;;;75.45;43.83;;;;;;;3.29;100.00;99548.92;1732494;82;21102;-73
2022/12/25 00:11:18;;;;;;;69.30;43.80;;;;;;;3.30;100.00;99543.81;1681519;84;20983;-73
2022/12/25 00:13:45;;;;;;;68.35;42.70;;;;;;;3.28;100.00;99551.31;1677221;85;21123;-74
2022/12/25 00:16:22;;;;;;;63.40;40.90;;;;;;;3.28;100.00;99548.63;1676148;85;21028;-73
2022/12/25 00:18:50;;;;;;;61.33;38.83;;;;;;;3.28;100.00;99549.45;1656873;85;21130;-73
2022/12/25 00:21:16;;;;;;;58.10;38.78;;;;;;;3.23;100.00;99550.64;1655917;85;21012;-73
2022/12/25 00:23:43;;;;;;;58.95;37.63;;;;;;;3.24;100.00;99556.33;1683159;85;21119;-73
2022/12/25 00:26:15;;;;;;;54.75;37.08;;;;;;;3.25;100.00;99555.29;1683088;85;21067;-74
2022/12/25 00:28:41;;;;;;;52.55;36.03;;;;;;;3.20;100.00;99561.04;1730881;82;21063;-74
2022/12/25 00:31:13;;;;;;;;;;;;;;;3.24;100.00;99556.84;1713849;84;21003;-74
2022/12/25 00:33:41;;;;;;;53.10;35.15;;;;;;;3.29;100.00;99561.03;1714052;82;20122;-73
2022/12/25 00:36:08;;;;;;;54.15;35.30;;;;;;;3.16;100.00;99563.89;1727766;82;21007;-74
2022/12/25 00:38:36;;;;;;;51.85;34.60;;;;;;;3.16;100.00;99559.84;1739963;82;21044;-74
2022/12/25 00:41:08;;;;;;;48.55;33.70;;;;;;;3.19;100.00;99562.91;1740990;82;21475;-74
2022/12/25 00:43:37;;;;;;;48.00;33.60;;;;;;;3.16;100.00;99567.92;1740665;82;21053;-73
2022/12/25 00:46:04;;;;;;;44.25;31.20;;;;;;;3.15;100.00;99568.47;1725222;82;21011;-74
2022/12/25 00:48:31;;;;;;;44.93;31.37;;;;;;;3.17;100.00;99574.42;1716881;82;21011;-73
2022/12/25 00:50:59;;;;;;;;;;;;;;;3.17;100.00;99573.61;1734225;82;20984;-73
2022/12/25 00:53:26;;;;;;;44.03;30.60;;;;;;;3.14;100.00;99580.27;1738785;82;20123;-73
2022/12/25 00:55:54;;;;;;;41.98;30.15;;;;;;;3.09;100.00;99582.80;1739918;82;20928;-73
2022/12/25 00:58:21;;;;;;;43.92;32.78;;;;;;;3.11;100.00;99582.59;1737833;82;21095;-73
2022/12/25 01:00:48;;;;;;;44.60;30.02;;;;;;;3.11;100.00;99585.28;1727038;82;20956;-73
2022/12/25 01:03:15;;;;;;;43.30;28.77;;;;;;;3.08;100.00;99585.22;1729856;82;21020;-73
2022/12/25 01:05:44;;;;;;;40.63;29.05;;;;;;;3.08;100.00;99589.25;1739059;82;20972;-74
2022/12/25 01:08:11;;;;;;;39.73;28.85;;;;;;;3.07;100.00;99579.53;1738501;82;21027;-73
2022/12/25 01:10:38;;;;;;;41.75;30.15;;;;;;;3.16;100.00;99591.61;1738556;81;20976;-72
2022/12/25 01:13:05;;;;;;;40.38;28.67;;;;;;;3.15;100.00;99589.98;1716090;81;21573;-72
2022/12/25 01:15:32;;;;;;;39.10;28.52;;;;;;;3.17;100.00;99596.47;1717880;82;20999;-72
2022/12/25 01:17:59;;;;;;;39.38;28.32;;;;;;;3.17;100.00;99601.33;1725116;82;21024;-72
2022/12/25 01:20:25;;;;;;;42.45;29.15;;;;;;;3.19;100.00;99603.80;1723943;82;20991;-72
2022/12/25 01:22:52;;;;;;;;;;;;;;;3.20;100.00;99601.39;1720487;82;21052;-73
2022/12/25 01:25:20;;;;;;;41.68;29.07;;;;;;;3.23;100.00;99595.03;1713236;82;20126;-72
2022/12/25 01:27:46;;;;;;;40.67;28.73;;;;;;;3.19;100.00;99598.42;1713400;81;21068;-73
2022/12/25 01:30:13;;;;;;;41.00;28.47;;;;;;;3.16;100.00;99603.72;1722574;82;21019;-72
2022/12/25 01:32:39;;;;;;;37.28;26.90;;;;;;;3.14;100.00;99604.48;1719813;82;20983;-72
2022/12/25 01:35:06;;;;;;;;;;;;;;;3.10;100.00;99597.91;1721170;82;20992;-73
2022/12/25 01:37:33;;;;;;;38.80;25.68;;;;;;;3.08;100.00;99595.98;1701062;82;20145;-72
2022/12/25 01:39:59;;;;;;;37.13;26.30;;;;;;;2.99;100.00;99600.00;1718303;82;21007;-73
2022/12/25 01:42:27;;;;;;;34.08;24.65;;;;;;;2.97;100.00;99595.39;1718153;82;20976;-72
2022/12/25 01:45:02;;;;;;;38.88;26.97;;;;;;;3.00;100.00;99604.34;1720580;82;21039;-72
2022/12/25 01:47:29;;;;;;;35.52;25.90;;;;;;;3.02;100.00;99592.83;1710643;82;21062;-72
2022/12/25 01:49:56;;;;;;;30.95;22.27;;;;;;;3.00;100.00;99598.97;1726590;82;21016;-72
2022/12/25 01:52:23;;;;;;;27.85;21.75;;;;;;;3.04;100.00;99584.55;1717701;82;21502;-73
2022/12/25 01:54:58;;;;;;;30.45;22.30;;;;;;;3.10;100.00;99590.35;1721843;82;21035;-72
2022/12/25 01:57:27;;;;;;;28.83;21.82;;;;;;;3.10;100.00;99591.18;1727375;82;20972;-72
2022/12/25 01:59:54;;;;;;;28.52;21.82;;;;;;;3.06;100.00;99591.33;1717385;82;21023;-72
2022/12/25 02:02:21;;;;;;;28.62;20.43;;;;;;;3.07;100.00;99589.47;1715506;82;21803;-72
2022/12/25 02:04:52;;;;;;;26.02;20.40;;;;;;;3.04;100.00;99590.75;1729633;81;21027;-72
2022/12/25 02:07:23;;;;;;;28.55;21.12;;;;;;;3.06;100.00;99588.64;1708812;82;20997;-72
2022/12/25 02:09:49;;;;;;;27.07;20.65;;;;;;;3.06;100.00;99599.40;1711687;82;21565;-72
2022/12/25 02:12:21;;;;;;;;;;;;;;;3.01;100.00;99600.07;1730224;82;20964;-72
2022/12/25 02:14:49;;;;;;;29.07;21.02;;;;;;;2.99;100.00;99598.14;1721292;82;20470;-73
2022/12/25 02:17:47;;;;;;;26.25;19.17;;;;;;;2.90;100.00;99604.06;1718449;82;20952;-73
2022/12/25 02:20:48;;;;;;;26.05;20.48;;;;;;;2.92;100.00;99604.13;1724974;82;21031;-72
2022/12/25 02:23:46;;;;;;;25.97;19.67;;;;;;;2.94;100.00;99607.95;1723205;82;21978;-73
2022/12/25 02:26:53;;;;;;;24.55;19.17;;;;;;;2.88;100.00;99612.86;1711946;82;21004;-72
2022/12/25 02:29:33;;;;;;;25.77;19.37;;;;;;;2.86;100.00;99618.48;1712842;82;21063;-72
2022/12/25 02:32:28;;;;;;;27.58;19.77;;;;;;;2.87;100.00;99611.23;1728003;82;21458;-73
2022/12/25 02:35:12;;;;;;;24.45;18.82;;;;;;;2.81;100.00;99620.18;1712968;82;21501;-73
2022/12/25 02:37:55;;;;;;;28.98;19.55;;;;;;;2.80;100.00;99618.56;1724067;82;20960;-72
2022/12/25 02:40:33;;;;;;;27.20;19.95;;;;;;;2.74;100.00;99622.13;1717058;82;20917;-72
2022/12/25 03:08:31;;;;;;;23.27;17.27;;;;;;;2.55;100.00;99660.24;1719052;82;21027;-73
2022/12/25 03:13:55;;;;;;;23.52;17.62;;;;;;;2.56;100.00;99667.78;1721328;82;21491;-72
2022/12/25 03:26:53;;;;;;;22.30;16.97;;;;;;;2.59;100.00;99663.34;1711354;82;20996;-72
2022/12/25 03:27:04;;;;;;;23.70;16.20;;;;;;;2.59;100.00;99670.86;1730487;82;20971;-72
2022/12/25 03:32:34;;;;;;;22.13;15.70;;;;;;;2.59;100.00;99670.86;1719258;82;20974;-72
2022/12/25 03:35:21;;;;;;;19.73;14.30;;;;;;;2.60;100.00;99674.37;1720187;82;20963;-72
2022/12/25 04:36:46;;;;;;;12.10;10.48;;;;;;;2.36;100.00;99706.94;1734364;82;21415;-72
2022/12/25 04:39:13;;;;;;;;;;;;;;;2.42;100.00;99714.11;1723079;82;21039;-73
2022/12/25 04:41:39;;;;;;;11.80;9.65;;;;;;;2.42;100.00;99715.45;1732003;82;20130;-73
2022/12/25 04:44:08;;;;;;;12.63;10.13;;;;;;;2.28;100.00;99716.61;1744435;82;21051;-73
2022/12/25 04:46:36;;;;;;;11.25;9.10;;;;;;;2.31;100.00;99720.19;1726066;82;21051;-72
2022/12/25 04:49:02;;;;;;;10.98;9.15;;;;;;;2.37;100.00;99721.48;1721577;82;21024;-73
2022/12/25 04:51:29;;;;;;;;;;;;;;;2.34;100.00;99727.81;1742600;82;20932;-72
2022/12/25 04:53:55;;;;;;;11.30;9.38;;;;;;;2.37;100.00;99728.73;1728336;82;20105;-72
2022/12/25 04:56:30;;;;;;;11.10;9.15;;;;;;;2.31;100.00;99732.28;1728342;82;20974;-73
2022/12/25 04:59:01;;;;;;;10.98;8.60;;;;;;;2.27;100.00;99728.38;1700797;82;21557;-72
2022/12/25 05:01:28;;;;;;;8.23;7.15;;;;;;;2.30;100.00;99734.14;1742501;82;21024;-72
2022/12/25 05:03:54;;;;;;;9.03;7.70;;;;;;;2.29;100.00;99735.20;1728905;82;21110;-73
2022/12/25 05:06:21;;;;;;;7.62;6.65;;;;;;;2.28;100.00;99734.06;1724357;82;21015;-72
2022/12/25 05:08:48;;;;;;;8.45;7.17;;;;;;;2.31;100.00;99735.80;1728604;82;21071;-73
2022/12/25 05:11:15;;;;;;;;;;;;;;;2.29;100.00;99735.20;1752002;82;21010;-72
2022/12/25 05:13:41;;;;;;;8.55;6.80;;;;;;;2.29;100.00;99737.06;1732286;82;20140;-72
2022/12/25 05:16:14;;;;;;;8.03;6.62;;;;;;;2.26;100.00;99743.70;1721008;83;21043;-72
2022/12/25 05:18:40;;;;;;;7.97;6.92;;;;;;;2.24;100.00;99752.48;1747351;82;21710;-72
2022/12/25 05:21:06;;;;;;;;;;;;;;;2.25;100.00;99751.45;1747526;82;21380;-72
2022/12/25 05:23:33;;;;;;;7.92;6.40;;;;;;;2.28;100.00;99749.66;1742394;82;20128;-72
2022/12/25 05:26:05;;;;;;;7.45;6.15;;;;;;;2.19;100.00;99753.67;1721097;82;21556;-72
2022/12/25 05:28:34;;;;;;;7.08;5.97;;;;;;;2.14;100.00;99756.69;1739624;82;21102;-72
2022/12/25 05:31:00;;;;;;;6.50;5.70;;;;;;;2.18;100.00;99763.27;1751983;82;21003;-72
2022/12/25 05:33:27;;;;;;;6.80;6.00;;;;;;;2.17;100.00;99761.10;1741972;82;21035;-72
2022/12/25 05:35:53;;;;;;;6.60;5.50;;;;;;;2.18;100.00;99764.09;1730110;80;21433;-72
2022/12/25 05:38:20;;;;;;;7.45;6.53;;;;;;;2.21;100.00;99774.41;1750973;82;21102;-72
2022/12/25 05:40:46;;;;;;;6.85;6.15;;;;;;;2.20;100.00;99771.92;1752042;82;21026;-73
2022/12/25 05:43:13;;;;;;;7.25;6.05;;;;;;;2.19;100.00;99771.13;1752012;82;21019;-72
2022/12/25 05:45:39;;;;;;;8.15;6.08;;;;;;;2.20;100.00;99771.41;1748514;82;20990;-72
2022/12/25 05:48:05;;;;;;;7.87;6.45;;;;;;;2.21;100.00;99774.41;1742950;82;21043;-72
2022/12/25 05:50:32;;;;;;;8.58;6.42;;;;;;;2.15;100.00;99776.62;1751715;82;21015;-72
2022/12/25 05:53:00;;;;;;;8.25;6.65;;;;;;;2.16;100.00;99785.50;1723939;82;21600;-72
2022/12/25 05:55:27;;;;;;;8.40;6.72;;;;;;;2.19;100.00;99795.30;1723273;82;21506;-72
2022/12/25 05:57:54;;;;;;;8.38;6.90;;;;;;;2.17;100.00;99791.16;1752003;82;21041;-72
2022/12/25 06:00:21;;;;;;;7.75;6.92;;;;;;;2.17;100.00;99791.98;1752042;82;21525;-72
2022/12/25 06:02:48;;;;;;;8.98;7.12;;;;;;;2.21;100.00;99799.92;1735292;82;21090;-73
2022/12/25 06:05:14;;;;;;;7.72;6.90;;;;;;;2.17;100.00;99802.73;1722275;82;20987;-72
2022/12/25 06:07:42;;;;;;;8.55;6.85;;;;;;;2.17;100.00;99798.70;1722286;82;21043;-72
2022/12/25 06:10:09;;;;;;;8.38;6.90;;;;;;;2.17;100.00;99812.13;1723252;82;21089;-72
2022/12/25 06:12:35;;;;;;;;;;;;;;;2.14;100.00;99810.39;1751237;82;20980;-73
2022/12/25 06:15:03;;;;;;;8.95;7.17;;;;;;;2.12;100.00;99814.66;1747521;82;20114;-72
2022/12/25 06:17:30;;;;;;;8.90;7.03;;;;;;;2.08;100.00;99813.44;1739161;81;20999;-72
2022/12/25 06:19:56;;;;;;;7.92;6.55;;;;;;;2.08;100.00;99824.17;1749974;81;21569;-72
2022/12/25 06:22:22;;;;;;;8.35;6.90;;;;;;;2.06;100.00;99828.92;1737209;82;21948;-72
2022/12/25 06:24:49;;;;;;;9.08;7.08;;;;;;;2.03;100.00;99835.23;1738738;82;21015;-72
2022/12/25 06:27:15;;;;;;;9.08;7.67;;;;;;;2.05;100.00;99838.03;1749732;82;20991;-72
2022/12/25 06:29:42;;;;;;;8.80;7.05;;;;;;;2.07;100.00;99845.34;1749598;82;21604;-73
2022/12/25 06:32:08;;;;;;;8.70;7.40;;;;;;;2.05;100.00;99850.12;1705719;83;20967;-73
2022/12/25 06:34:36;;;;;;;7.92;6.83;;;;;;;2.06;100.00;99850.91;1723452;82;21059;-72
2022/12/25 06:37:02;;;;;;;8.88;7.00;;;;;;;2.07;100.00;99857.94;1738875;82;20988;-72
2022/12/25 06:39:29;;;;;;;8.25;6.37;;;;;;;2.08;100.00;99856.40;1751106;82;21043;-73
2022/12/25 06:41:55;;;;;;;;;;;;;;;2.05;100.00;99860.86;1717920;82;21486;-73
2022/12/25 06:44:21;;;;;;;8.10;6.60;;;;;;;2.08;100.00;99865.80;1726359;82;20113;-72
2022/12/25 06:46:48;;;;;;;7.25;5.92;;;;;;;2.00;100.00;99872.23;1741665;81;21007;-73
2022/12/25 06:49:15;;;;;;;8.35;6.42;;;;;;;2.02;100.00;99873.89;1722409;82;21157;-72
2022/12/25 06:51:41;;;;;;;7.42;6.12;;;;;;;2.06;100.00;99877.25;1720400;83;21532;-72
2022/12/25 06:54:08;;;;;;;8.65;6.90;;;;;;;2.03;100.00;99880.37;1727805;82;21094;-73
2022/12/25 06:56:35;;;;;;;7.03;6.00;;;;;;;2.00;100.00;99888.85;1732083;82;21046;-73
2022/12/25 06:59:05;;;;;;;7.25;5.83;;;;;;;2.02;100.00;99890.00;1720542;83;21094;-73
2022/12/25 07:01:45;;;;;;;7.67;6.22;;;;;;;2.07;100.00;99898.22;1749342;82;20999;-72
2022/12/25 07:04:32;;;;;;;7.62;6.17;;;;;;;2.05;100.00;99894.94;1736022;82;21087;-73
2022/12/25 07:07:00;;;;;;;14.23;9.70;;;;;;;2.08;100.00;99901.22;1738209;82;21003;-73
2022/12/25 07:09:27;;;;;;;;;;;;;;;2.03;100.00;99900.51;1752196;81;21063;-73
2022/12/25 07:11:53;;;;;;;7.70;6.17;;;;;;;2.00;100.00;99907.14;1743467;82;20158;-73
2022/12/25 07:14:21;;;;;;;7.53;5.95;;;;;;;1.99;100.00;99909.51;1744083;82;21632;-73
2022/12/25 07:16:48;;;;;;;7.75;6.17;;;;;;;1.95;100.00;99906.11;1744221;82;21589;-72
2022/12/25 07:19:15;;;;;;;;;;;;;;;1.94;100.00;99909.33;1732450;82;21003;-73
2022/12/25 07:24:37;;;;;;;9.48;7.40;;;;;;;1.89;100.00;99901.59;1777917;79;22661;-72
2022/12/25 07:27:04;;;;;;;6.45;5.33;;;;;;;1.81;100.00;99912.04;1750561;82;21031;-73
2022/12/25 07:29:32;;;;;;;6.10;5.22;;;;;;;1.82;100.00;99913.70;1750264;82;21098;-73
2022/12/25 07:31:58;;;;;;;6.62;5.60;;;;;;;1.85;100.00;99919.15;1721222;82;21070;-73
2022/12/25 07:34:25;;;;;;;6.40;5.25;;;;;;;1.81;100.00;99921.44;1750769;82;21122;-72
2022/12/25 07:36:53;;;;;;;7.65;5.40;;;;;;;1.81;100.00;99920.60;1744075;82;21066;-73
2022/12/25 07:39:20;;;;;;;6.15;5.17;;;;;;;1.85;100.00;99924.01;1720745;83;21690;-72
2022/12/25 07:41:47;;;;;;;;;;;;;;;1.84;100.00;99927.72;1723466;83;21102;-72
2022/12/25 07:44:14;;;;;;;7.25;5.20;;;;;;;1.85;100.00;99932.06;1721107;83;20144;-73
2022/12/25 07:46:41;;;;;;;6.05;5.20;;;;;;;1.80;100.00;99933.74;1720783;82;21062;-73
2022/12/25 07:49:09;;;;;;;5.40;4.65;;;;;;;1.79;100.00;99928.05;1720940;83;21102;-72
2022/12/25 07:51:37;;;;;;;5.35;4.30;;;;;;;1.78;100.00;99935.80;1708982;83;21072;-72
2022/12/25 07:54:04;;;;;;;5.75;4.58;;;;;;;1.79;100.00;99940.13;1711446;82;21541;-73
2022/12/25 07:56:31;;;;;;;5.42;4.67;;;;;;;1.75;100.00;99933.02;1720810;83;21063;-72
2022/12/25 07:58:57;;;;;;;5.12;4.17;;;;;;;1.77;100.00;99938.98;1725129;82;21154;-72
2022/12/25 08:01:25;;;;;;;5.87;4.70;;;;;;;1.75;100.00;99936.22;1750446;82;21066;-73
2022/12/25 08:03:58;;;;;;;4.92;4.00;;;;;;;1.73;100.00;99936.44;1750308;82;21091;-72
2022/12/25 08:06:30;;;;;;;5.22;4.22;;;;;;;1.72;100.00;99934.78;1750673;81;21042;-72
2022/12/25 08:09:07;;;;;;;5.25;4.67;;;;;;;1.76;100.00;99935.19;1751019;82;21101;-72
2022/12/25 08:11:36;;;;;;;5.12;4.05;;;;;;;1.74;100.00;99935.39;1751007;81;21023;-73
2022/12/25 08:14:05;;;;;;;4.60;3.70;;;;;;;1.76;100.00;99941.90;1751908;81;21561;-72
2022/12/25 08:16:33;;;;;;;4.20;3.70;;;;;;;1.78;100.00;99946.53;1723247;82;21443;-73
2022/12/25 08:19:00;;;;;;;5.22;4.40;;;;;;;1.75;100.00;99942.92;1735893;82;21050;-72
2022/12/25 08:21:26;;;;;;;4.97;4.00;;;;;;;1.71;100.00;99938.49;1738828;82;20987;-72
2022/12/25 08:23:53;;;;;;;5.53;3.87;;;;;;;1.74;100.00;99954.69;1752358;81;21047;-72
2022/12/25 08:26:21;;;;;;;5.12;3.98;;;;;;;1.72;100.00;99959.45;1753061;82;21510;-72
2022/12/25 08:28:48;;;;;;;4.28;3.67;;;;;;;1.73;100.00;99960.59;1741844;82;21114;-73
2022/12/25 08:31:23;;;;;;;;;;;;;;;1.72;100.00;99955.42;1725589;83;20983;-72
2022/12/25 08:33:51;;;;;;;4.70;3.47;;;;;;;1.73;100.00;99957.91;1721917;83;20153;-72
2022/12/25 08:36:18;;;;;;;4.72;3.83;;;;;;;1.68;100.00;99963.58;1724477;82;20968;-72
2022/12/25 08:38:45;;;;;;;;;;;;;;;1.68;100.00;99959.56;1724766;83;21134;-72
2022/12/25 08:41:11;;;;;;;4.20;3.37;;;;;;;1.70;100.00;99962.87;1722453;83;20105;-72
2022/12/25 08:43:38;;;;;;;4.35;3.60;;;;;;;1.68;100.00;99964.92;1722489;83;21122;-72
2022/12/25 08:46:05;;;;;;;4.62;3.27;;;;;;;1.67;100.00;99967.30;1711891;82;20976;-72
2022/12/25 08:48:32;;;;;;;3.70;3.20;;;;;;;1.70;100.00;99974.41;1741528;82;21070;-72
2022/12/25 08:50:58;;;;;;;4.70;3.62;;;;;;;1.75;100.00;99975.13;1752464;82;21487;-72
2022/12/25 08:53:25;;;;;;;4.95;3.52;;;;;;;1.76;100.00;99977.63;1752404;82;21118;-72
2022/12/25 08:55:59;;;;;;;4.35;3.40;;;;;;;1.77;100.00;99978.45;1752040;82;21486;-72
2022/12/25 08:58:26;;;;;;;4.45;3.35;;;;;;;1.82;100.00;99980.80;1747836;82;21082;-72
2022/12/25 09:00:53;;;;;;;4.33;3.50;;;;;;;1.86;100.00;99986.58;1731809;82;20976;-72
2022/12/25 09:03:20;;;;;;;4.25;3.33;;;;;;;1.83;100.00;99991.03;1732800;81;21951;-72
2022/12/25 09:05:46;;;;;;;4.03;3.50;;;;;;;1.87;100.00;99986.90;1730942;82;21054;-72
2022/12/25 09:08:12;;;;;;;5.83;4.80;;;;;;;1.90;100.00;99983.79;1741577;82;21126;-72
2022/12/25 09:10:41;;;;;;;4.83;3.27;;;;;;;1.85;100.00;99991.12;1741136;82;21565;-72
2022/12/25 09:13:07;;;;;;;3.67;3.00;;;;;;;1.88;100.00;99993.89;1734252;82;21647;-72
2022/12/25 09:15:34;;;;;;;3.85;3.08;;;;;;;1.93;100.00;99987.39;1738818;82;21338;-71
2022/12/25 09:18:01;;;;;;;;;;;;;;;1.92;100.00;99995.13;1668005;84;21089;-72
2022/12/25 09:20:27;;;;;;;4.42;3.40;;;;;;;1.95;100.00;100001.42;1674964;84;20134;-71
2022/12/25 09:22:54;;;;;;;4.75;3.72;;;;;;;1.92;100.00;100002.67;1729230;82;21105;-72
2022/12/25 09:25:20;;;;;;;4.90;3.83;;;;;;;1.91;100.00;100000.21;1713778;82;21389;-71
2022/12/25 09:27:46;;;;;;;4.67;3.62;;;;;;;1.92;100.00;100005.87;1713548;82;21110;-71
2022/12/25 09:30:13;;;;;;;;;;;;;;;1.95;100.00;100004.93;1711515;82;21893;-72
2022/12/25 09:32:40;;;;;;;4.20;3.40;;;;;;;1.93;100.00;100000.81;1712799;82;20146;-70
2022/12/25 09:35:07;;;;;;;5.00;3.50;;;;;;;1.92;100.00;99997.81;1707310;82;21675;-71
2022/12/25 09:37:34;;;;;;;4.90;4.00;;;;;;;1.99;100.00;99998.63;1716654;82;21051;-71
2022/12/25 09:40:00;;;;;;;;;;;;;;;1.97;100.00;99996.68;1737546;82;21618;-72
2022/12/25 09:42:30;;;;;;;6.50;3.98;;;;;;;1.97;100.00;100012.28;1711874;82;20553;-72
2022/12/25 09:45:01;;;;;;;4.72;3.92;;;;;;;1.93;100.00;100016.92;1722728;82;21047;-71
2022/12/25 09:47:32;;;;;;;4.80;3.70;;;;;;;1.97;100.00;100012.80;1721434;82;21510;-72
2022/12/25 09:50:31;;;;;;;4.85;3.95;;;;;;;1.94;100.00;100016.73;1718891;82;21096;-72
2022/12/25 09:53:02;;;;;;;5.40;4.15;;;;;;;1.99;100.00;100014.73;1710595;82;21039;-71
2022/12/25 09:55:30;;;;;;;5.25;4.05;;;;;;;2.05;100.00;100019.29;1736596;82;21078;-72
2022/12/25 09:58:01;;;;;;;5.12;4.00;;;;;;;2.02;100.00;100018.88;1728395;82;21055;-72
2022/12/25 10:00:44;;;;;;;4.80;4.10;;;;;;;2.05;100.00;100019.29;1719111;82;21115;-73
2022/12/25 10:03:39;;;;;;;4.62;4.05;;;;;;;2.07;100.00;100025.27;1728970;82;21154;-72
2022/12/25 10:06:11;;;;;;;10.53;9.45;;;;;;;2.06;100.00;100024.95;1711240;82;21043;-72
2022/12/25 10:08:56;;;;;;;5.50;4.20;;;;;;;2.06;100.00;100026.29;1711802;82;21118;-72
2022/12/25 10:11:55;;;;;;;6.00;4.55;;;;;;;2.05;100.00;100030.55;1713111;82;21082;-73
2022/12/25 10:14:37;;;;;;;4.90;4.10;;;;;;;1.97;100.00;100031.08;1729841;82;21637;-73
2022/12/25 10:17:56;;;;;;;5.17;3.92;;;;;;;1.97;100.00;100040.47;1721843;82;21035;-72
2022/12/25 10:20:41;;;;;;;;;;;;;;;1.96;100.00;100025.39;1704114;82;21047;-72
2022/12/25 10:23:19;;;;;;;4.45;3.92;;;;;;;1.91;100.00;100034.57;1673009;85;20426;-73
2022/12/25 10:25:46;;;;;;;6.08;4.35;;;;;;;1.90;100.00;100031.59;1730889;82;21066;-72
2022/12/25 10:28:16;;;;;;;6.70;5.65;;;;;;;1.98;100.00;100033.24;1720039;82;21035;-73
2022/12/25 10:30:44;;;;;;;5.28;4.30;;;;;;;1.95;100.00;100034.98;1733142;82;21546;-73
2022/12/25 10:33:13;;;;;;;6.20;4.92;;;;;;;1.96;100.00;100044.18;1710575;84;21454;-73
2022/12/25 10:35:40;;;;;;;6.08;4.65;;;;;;;2.01;100.00;100043.56;1695043;83;21132;-73
2022/12/25 10:38:15;;;;;;;10.40;8.45;;;;;;;2.04;100.00;100038.28;1715923;83;22235;-73
2022/12/25 10:41:06;;;;;;;5.92;5.00;;;;;;;2.09;100.00;100047.35;1715479;83;21110;-73
2022/12/25 10:43:54;;;;;;;9.38;8.03;;;;;;;2.16;100.00;100049.50;1716908;82;22149;-73
2022/12/25 10:46:24;;;;;;;17.05;12.88;;;;;;;2.10;100.00;100056.23;1706238;83;21144;-73
2022/12/25 10:48:57;;;;;;;11.63;7.50;;;;;;;2.03;100.00;100058.11;1714600;82;21099;-73
2022/12/25 10:51:37;;;;;;;11.43;7.72;;;;;;;2.09;100.00;100066.15;1733586;82;21342;-73
2022/12/25 10:54:18;;;;;;;10.43;8.20;;;;;;;2.10;100.00;100059.75;1715302;83;21633;-73
2022/12/25 10:57:00;;;;;;;9.48;7.60;;;;;;;2.11;100.00;100069.47;1714251;82;21098;-73
2022/12/25 10:59:30;;;;;;;9.55;7.12;;;;;;;2.11;100.00;100063.27;1715598;83;21597;-73
2022/12/25 11:02:04;;;;;;;9.70;8.05;;;;;;;2.07;100.00;100066.89;1734848;82;21553;-73
2022/12/25 11:04:32;;;;;;;8.90;6.75;;;;;;;2.02;100.00;100066.67;1745330;82;21114;-73
2022/12/25 11:07:22;;;;;;;7.37;5.90;;;;;;;1.99;100.00;100063.06;1744785;82;21083;-74
2022/12/25 11:10:01;;;;;;;8.63;6.83;;;;;;;2.08;100.00;100062.34;1711865;82;21602;-73
2022/12/25 11:12:36;;;;;;;7.83;6.45;;;;;;;2.09;100.00;100069.38;1744697;82;21034;-73
2022/12/25 11:15:31;;;;;;;9.35;7.28;;;;;;;2.11;100.00;100073.50;1744067;82;21023;-73
2022/12/25 11:17:57;;;;;;;7.00;5.87;;;;;;;2.11;100.00;100070.81;1741743;82;21067;-73
2022/12/25 11:20:24;;;;;;;;;;;;;;;2.12;100.00;100072.98;1747677;82;21570;-73
2022/12/25 11:22:50;;;;;;;6.47;5.22;;;;;;;2.10;100.00;100073.18;1744789;82;20127;-73
2022/12/25 11:25:23;;;;;;;8.33;5.50;;;;;;;2.12;100.00;100069.78;1738762;81;21042;-73
2022/12/25 11:28:00;;;;;;;7.22;5.10;;;;;;;2.15;100.00;100075.25;1733505;82;21099;-73
2022/12/25 11:30:28;;;;;;;7.07;5.20;;;;;;;2.17;100.00;100070.48;1718803;82;21071;-73
2022/12/25 11:32:55;;;;;;;6.42;4.72;;;;;;;2.20;100.00;100072.74;1708940;84;21316;-73
2022/12/25 11:35:24;;;;;;;;;;;;;;;2.22;100.00;100074.72;1712909;82;21027;-73
2022/12/25 11:37:51;;;;;;;5.72;4.20;;;;;;;2.19;100.00;100078.66;1738377;81;20419;-73
2022/12/25 11:40:30;;;;;;;5.12;3.87;;;;;;;2.18;100.00;100092.28;1738438;82;21007;-73
2022/12/25 11:43:35;;;;;;;8.40;5.50;;;;;;;2.22;100.00;100086.80;1738170;82;21099;-73
2022/12/25 11:46:26;;;;;;;6.12;4.40;;;;;;;2.24;100.00;100088.23;1737040;82;21052;-73
2022/12/25 11:48:56;;;;;;;5.00;4.10;;;;;;;2.30;100.00;100086.05;1738223;82;21048;-73
2022/12/25 11:51:25;;;;;;;5.72;4.00;;;;;;;2.35;100.00;100084.09;1716390;82;21051;-73
2022/12/25 11:53:59;;;;;;;5.90;4.33;;;;;;;2.39;100.00;100082.63;1708804;84;21611;-73
2022/12/25 11:56:27;;;;;;;5.67;3.85;;;;;;;2.42;100.00;100087.58;1731669;82;21554;-73
2022/12/25 11:59:05;;;;;;;5.47;4.30;;;;;;;2.42;100.00;100087.07;1738379;81;21039;-73
2022/12/25 12:01:57;;;;;;;7.15;4.10;;;;;;;2.46;100.00;100090.16;1737731;82;21609;-73
2022/12/25 12:04:34;;;;;;;5.28;3.98;;;;;;;2.50;100.00;100102.14;1738278;82;21047;-73
2022/12/25 12:07:19;;;;;;;7.17;5.55;;;;;;;2.51;100.00;100103.80;1710855;82;21031;-73
2022/12/25 12:09:59;;;;;;;24.45;15.32;;;;;;;2.54;100.00;100108.75;1709578;82;21491;-73
2022/12/25 12:12:40;;;;;;;35.23;21.15;;;;;;;2.51;100.00;100118.04;1709030;84;21042;-73
2022/12/25 12:15:27;;;;;;;10.20;6.58;;;;;;;2.51;100.00;100118.59;1726332;82;21020;-73
2022/12/25 12:17:54;;;;;;;11.85;7.03;;;;;;;2.52;100.00;100129.63;1738605;82;21601;-73
2022/12/25 12:20:30;;;;;;;9.30;5.97;;;;;;;2.48;100.00;100131.07;1738578;82;20972;-74
2022/12/25 12:22:57;;;;;;;8.43;5.47;;;;;;;2.50;100.00;100144.63;1738247;82;21052;-73
2022/12/25 12:25:23;;;;;;;8.93;5.37;;;;;;;2.55;100.00;100143.18;1731711;81;20999;-74
2022/12/25 12:27:56;;;;;;;35.60;21.48;;;;;;;2.51;100.00;100144.11;1722543;83;21043;-73
2022/12/25 12:30:27;;;;;;;8.50;5.92;;;;;;;2.49;100.00;100147.00;1746293;82;20991;-73
2022/12/25 12:32:57;;;;;;;8.85;6.03;;;;;;;2.50;100.00;100155.37;1749081;82;21439;-73
2022/12/25 12:35:27;;;;;;;14.68;9.60;;;;;;;2.45;100.00;100152.48;1721178;83;21047;-73
2022/12/25 12:38:10;;;;;;;7.00;5.33;;;;;;;2.45;100.00;100151.65;1720889;83;21090;-73
2022/12/25 12:40:44;;;;;;;20.08;12.60;;;;;;;2.45;100.00;100151.13;1721705;82;22542;-73
2022/12/25 12:43:31;;;;;;;7.30;5.42;;;;;;;2.42;100.00;100152.07;1695131;83;21137;-73
2022/12/25 12:46:17;;;;;;;11.63;8.00;;;;;;;2.40;100.00;100156.33;1721025;82;20981;-73
2022/12/25 12:48:47;;;;;;;8.75;6.55;;;;;;;2.36;100.00;100158.28;1737313;82;21133;-73
2022/12/25 12:51:30;;;;;;;19.65;14.83;;;;;;;2.31;100.00;100162.94;1751047;81;21117;-73
2022/12/25 12:54:22;;;;;;;8.95;6.37;;;;;;;2.35;100.00;100167.38;1751571;82;21047;-73
2022/12/25 12:57:03;;;;;;;8.75;6.40;;;;;;;2.33;100.00;100170.80;1695141;82;21054;-73
2022/12/25 17:09:29;;;;;;;40.65;26.17;;;;;;;-0.04;100.00;100357.19;1831473;77;23139;-65
2022/12/25 17:11:57;;;;;;;29.85;19.55;;;;;;;0.06;100.00;100365.44;1806922;78;21014;-66
2022/12/25 17:14:25;;;;;;;22.22;15.20;;;;;;;0.28;100.00;100371.16;1794948;78;21591;-66
2022/12/25 17:16:55;;;;;;;18.07;11.70;;;;;;;0.46;100.00;100368.34;1798643;78;21465;-65
2022/12/25 17:19:32;;;;;;;21.75;16.27;;;;;;;0.63;100.00;100383.66;1782210;79;21092;-66
2022/12/25 17:22:02;;;;;;;18.02;12.43;;;;;;;0.77;100.00;100380.59;1800553;78;21045;-65
2022/12/25 17:24:25;;;;;;;15.32;11.53;;;;;;;0.87;100.00;100389.13;1753561;79;21101;-64
2022/12/25 17:27:01;;;;;;;19.05;12.90;;;;;;;0.99;100.00;100391.62;1793781;78;22207;-64
2022/12/25 17:29:30;;;;;;;16.97;13.15;;;;;;;1.04;100.00;100397.72;1764393;81;21694;-64
2022/12/25 17:32:00;;;;;;;16.05;11.25;;;;;;;1.10;100.00;100396.96;1762888;79;20974;-64
2022/12/25 17:34:28;;;;;;;12.70;9.95;;;;;;;1.18;100.00;100398.97;1798724;78;20987;-65
2022/12/25 17:36:57;;;;;;;;;;;;;;;1.20;100.00;100400.96;1795517;79;20970;-65
2022/12/25 17:39:26;;;;;;;15.45;11.48;;;;;;;1.22;100.00;100400.75;1789880;78;20131;-67
2022/12/25 17:41:55;;;;;;;15.72;10.75;;;;;;;1.22;100.00;100389.52;1801393;79;20986;-67